sensor_id;sensor_type;location;lat;lon;timestamp;temperature;humidity
14016;DHT22;7083;48.854;9.158;2022-12-24T00:01:15;9.20;99.90
14016;DHT22;7083;48.854;9.158;2022-12-24T00:03:41;9.20;99.90
14016;DHT22;7083;48.854;9.158;2022-12-24T00:06:12;9.20;99.90
14016;DHT22;7083;48.854;9.158;2022-12-24T00:08:41;9.20;99.90
14016;DHT22;7083;48.854;9.158;2022-12-24T00:11:28;9.20;99.90
14016;DHT22;7083;48.854;9.158;2022-12-24T00:13:56;9.20;99.90
14016;DHT22;7083;48.854;9.158;2022-12-24T00:16:22;9.20;99.90
14016;DHT22;7083;48.854;9.158;2022-12-24T00:18:49;9.20;99.90
14016;DHT22;7083;48.854;9.158;2022-12-24T00:21:16;9.20;99.90
14016;DHT22;7083;48.854;9.158;2022-12-24T00:23:43;9.20;99.90
14016;DHT22;7083;48.854;9.158;2022-12-24T00:26:10;9.10;99.90
14016;DHT22;7083;48.854;9.158;2022-12-24T00:28:37;9.20;99.90
14016;DHT22;7083;48.854;9.158;2022-12-24T00:31:10;9.20;99.90
14016;DHT22;7083;48.854;9.158;2022-12-24T00:33:37;9.20;99.90
14016;DHT22;7083;48.854;9.158;2022-12-24T00:36:05;9.10;99.90
14016;DHT22;7083;48.854;9.158;2022-12-24T00:38:32;9.10;99.90
14016;DHT22;7083;48.854;9.158;2022-12-24T00:40:59;9.10;99.90
14016;DHT22;7083;48.854;9.158;2022-12-24T00:43:26;9.10;99.90
14016;DHT22;7083;48.854;9.158;2022-12-24T00:45:54;9.10;99.90
14016;DHT22;7083;48.854;9.158;2022-12-24T00:48:22;9.10;99.90
14016;DHT22;7083;48.854;9.158;2022-12-24T00:50:49;10.10;99.90
14016;DHT22;7083;48.854;9.158;2022-12-24T00:53:17;9.10;99.90
14016;DHT22;7083;48.854;9.158;2022-12-24T00:55:43;9.10;99.90
14016;DHT22;7083;48.854;9.158;2022-12-24T00:58:10;9.00;99.90
14016;DHT22;7083;48.854;9.158;2022-12-24T01:00:37;9.10;99.90
14016;DHT22;7083;48.854;9.158;2022-12-24T01:03:03;9.10;99.90
14016;DHT22;7083;48.854;9.158;2022-12-24T01:05:32;9.10;99.90
14016;DHT22;7083;48.854;9.158;2022-12-24T01:07:58;9.10;99.90
14016;DHT22;7083;48.854;9.158;2022-12-24T01:10:25;9.10;99.90
14016;DHT22;7083;48.854;9.158;2022-12-24T01:12:52;9.10;99.90
14016;DHT22;7083;48.854;9.158;2022-12-24T01:15:18;9.10;99.90
14016;DHT22;7083;48.854;9.158;2022-12-24T01:17:45;9.20;99.90
14016;DHT22;7083;48.854;9.158;2022-12-24T01:20:14;9.20;99.90
14016;DHT22;7083;48.854;9.158;2022-12-24T01:22:42;9.20;99.90
14016;DHT22;7083;48.854;9.158;2022-12-24T01:25:09;9.30;99.90
14016;DHT22;7083;48.854;9.158;2022-12-24T01:27:36;9.30;99.90
14016;DHT22;7083;48.854;9.158;2022-12-24T01:30:04;9.50;99.90
14016;DHT22;7083;48.854;9.158;2022-12-24T01:32:31;9.50;99.90
14016;DHT22;7083;48.854;9.158;2022-12-24T01:34:58;9.50;99.90
14016;DHT22;7083;48.854;9.158;2022-12-24T01:37:25;9.50;99.90
14016;DHT22;7083;48.854;9.158;2022-12-24T01:39:53;9.50;99.90
14016;DHT22;7083;48.854;9.158;2022-12-24T01:42:45;9.50;99.90
14016;DHT22;7083;48.854;9.158;2022-12-24T01:45:41;9.50;99.90
14016;DHT22;7083;48.854;9.158;2022-12-24T01:48:15;9.50;99.90
14016;DHT22;7083;48.854;9.158;2022-12-24T01:50:43;9.40;99.90
14016;DHT22;7083;48.854;9.158;2022-12-24T01:53:10;9.40;99.90
14016;DHT22;7083;48.854;9.158;2022-12-24T01:55:39;9.30;99.90
14016;DHT22;7083;48.854;9.158;2022-12-24T01:58:07;9.30;99.90
14016;DHT22;7083;48.854;9.158;2022-12-24T02:00:34;9.30;99.90
14016;DHT22;7083;48.854;9.158;2022-12-24T02:03:01;9.30;99.90
14016;DHT22;7083;48.854;9.158;2022-12-24T02:05:31;9.30;99.90
14016;DHT22;7083;48.854;9.158;2022-12-24T02:08:01;9.40;99.90
14016;DHT22;7083;48.854;9.158;2022-12-24T02:10:28;9.30;99.90
14016;DHT22;7083;48.854;9.158;2022-12-24T02:12:57;9.30;99.90
14016;DHT22;7083;48.854;9.158;2022-12-24T02:15:26;9.20;99.90
14016;DHT22;7083;48.854;9.158;2022-12-24T02:18:01;9.20;99.90
14016;DHT22;7083;48.854;9.158;2022-12-24T02:20:50;9.20;99.90
14016;DHT22;7083;48.854;9.158;2022-12-24T02:27:05;9.20;99.90
14016;DHT22;7083;48.854;9.158;2022-12-24T02:30:00;9.20;99.90
14016;DHT22;7083;48.854;9.158;2022-12-24T02:32:34;9.10;99.90
14016;DHT22;7083;48.854;9.158;2022-12-24T02:35:06;9.10;99.90
14016;DHT22;7083;48.854;9.158;2022-12-24T02:37:46;9.00;99.90
14016;DHT22;7083;48.854;9.158;2022-12-24T02:40:38;10.50;99.90
14016;DHT22;7083;48.854;9.158;2022-12-24T02:43:17;9.10;99.90
14016;DHT22;7083;48.854;9.158;2022-12-24T02:49:23;9.20;99.90
14016;DHT22;7083;48.854;9.158;2022-12-24T02:52:25;9.00;99.90
14016;DHT22;7083;48.854;9.158;2022-12-24T03:02:07;8.60;99.90
14016;DHT22;7083;48.854;9.158;2022-12-24T03:05:19;8.50;99.90
14016;DHT22;7083;48.854;9.158;2022-12-24T03:14:52;8.60;99.90
14016;DHT22;7083;48.854;9.158;2022-12-24T03:20:59;9.20;99.90
14016;DHT22;7083;48.854;9.158;2022-12-24T03:23:54;8.70;99.90
14016;DHT22;7083;48.854;9.158;2022-12-24T03:29:25;8.50;99.90
14016;DHT22;7083;48.854;9.158;2022-12-24T03:31:59;8.70;99.90
14016;DHT22;7083;48.854;9.158;2022-12-24T03:34:26;8.40;99.90
14016;DHT22;7083;48.854;9.158;2022-12-24T03:36:54;8.60;99.90
14016;DHT22;7083;48.854;9.158;2022-12-24T03:39:22;8.30;99.90
14016;DHT22;7083;48.854;9.158;2022-12-24T03:41:49;8.50;99.90
14016;DHT22;7083;48.854;9.158;2022-12-24T03:44:15;9.40;99.90
14016;DHT22;7083;48.854;9.158;2022-12-24T03:46:42;9.30;99.90
14016;DHT22;7083;48.854;9.158;2022-12-24T03:49:09;8.20;99.90
14016;DHT22;7083;48.854;9.158;2022-12-24T03:51:36;10.90;99.90
14016;DHT22;7083;48.854;9.158;2022-12-24T03:54:04;8.20;99.90
14016;DHT22;7083;48.854;9.158;2022-12-24T03:56:31;8.60;99.90
14016;DHT22;7083;48.854;9.158;2022-12-24T03:58:57;8.50;99.90
14016;DHT22;7083;48.854;9.158;2022-12-24T04:01:24;8.50;99.90
14016;DHT22;7083;48.854;9.158;2022-12-24T04:03:51;8.60;99.90
14016;DHT22;7083;48.854;9.158;2022-12-24T04:06:18;8.30;99.90
14016;DHT22;7083;48.854;9.158;2022-12-24T04:08:44;8.60;99.90
14016;DHT22;7083;48.854;9.158;2022-12-24T04:11:20;8.40;99.90
14016;DHT22;7083;48.854;9.158;2022-12-24T04:13:46;8.70;99.90
14016;DHT22;7083;48.854;9.158;2022-12-24T04:16:14;9.60;99.90
14016;DHT22;7083;48.854;9.158;2022-12-24T04:22:31;8.80;99.90
14016;DHT22;7083;48.854;9.158;2022-12-24T04:25:03;9.90;99.90
14016;DHT22;7083;48.854;9.158;2022-12-24T04:27:48;10.50;99.90
14016;DHT22;7083;48.854;9.158;2022-12-24T05:22:14;8.10;99.90
14016;DHT22;7083;48.854;9.158;2022-12-24T05:24:58;8.10;99.90
14016;DHT22;7083;48.854;9.158;2022-12-24T05:27:42;8.00;99.90
14016;DHT22;7083;48.854;9.158;2022-12-24T05:30:09;8.00;99.90
14016;DHT22;7083;48.854;9.158;2022-12-24T05:32:36;8.00;99.90
14016;DHT22;7083;48.854;9.158;2022-12-24T05:35:03;8.00;99.90
14016;DHT22;7083;48.854;9.158;2022-12-24T05:37:32;7.90;99.90
14016;DHT22;7083;48.854;9.158;2022-12-24T05:39:58;8.30;99.90
14016;DHT22;7083;48.854;9.158;2022-12-24T05:42:25;8.00;99.90
14016;DHT22;7083;48.854;9.158;2022-12-24T05:44:52;8.10;99.90
14016;DHT22;7083;48.854;9.158;2022-12-24T05:47:19;9.30;99.90
14016;DHT22;7083;48.854;9.158;2022-12-24T05:49:46;7.90;99.90
14016;DHT22;7083;48.854;9.158;2022-12-24T05:52:13;8.80;99.90
14016;DHT22;7083;48.854;9.158;2022-12-24T05:54:41;9.70;99.90
14016;DHT22;7083;48.854;9.158;2022-12-24T05:57:08;7.70;99.90
14016;DHT22;7083;48.854;9.158;2022-12-24T05:59:34;8.70;99.90
14016;DHT22;7083;48.854;9.158;2022-12-24T06:02:01;7.70;99.90
14016;DHT22;7083;48.854;9.158;2022-12-24T06:04:28;7.50;99.90
14016;DHT22;7083;48.854;9.158;2022-12-24T06:06:55;7.60;99.90
14016;DHT22;7083;48.854;9.158;2022-12-24T06:09:22;7.50;99.90
14016;DHT22;7083;48.854;9.158;2022-12-24T06:11:50;7.80;99.90
14016;DHT22;7083;48.854;9.158;2022-12-24T06:14:17;7.40;99.90
14016;DHT22;7083;48.854;9.158;2022-12-24T06:16:43;7.40;99.90
14016;DHT22;7083;48.854;9.158;2022-12-24T06:19:10;7.40;99.90
14016;DHT22;7083;48.854;9.158;2022-12-24T06:21:37;7.10;99.90
14016;DHT22;7083;48.854;9.158;2022-12-24T06:24:04;7.00;99.90
14016;DHT22;7083;48.854;9.158;2022-12-24T06:26:31;7.40;99.90
14016;DHT22;7083;48.854;9.158;2022-12-24T06:28:59;7.20;99.90
14016;DHT22;7083;48.854;9.158;2022-12-24T06:31:26;7.10;99.90
14016;DHT22;7083;48.854;9.158;2022-12-24T06:33:53;7.20;99.90
14016;DHT22;7083;48.854;9.158;2022-12-24T06:36:21;7.20;99.90
14016;DHT22;7083;48.854;9.158;2022-12-24T06:38:49;7.20;99.90
14016;DHT22;7083;48.854;9.158;2022-12-24T06:41:17;7.10;99.90
14016;DHT22;7083;48.854;9.158;2022-12-24T06:43:44;7.10;99.90
14016;DHT22;7083;48.854;9.158;2022-12-24T06:46:12;7.20;99.90
14016;DHT22;7083;48.854;9.158;2022-12-24T06:48:39;7.10;99.90
14016;DHT22;7083;48.854;9.158;2022-12-24T06:51:06;8.80;99.90
14016;DHT22;7083;48.854;9.158;2022-12-24T06:53:33;7.10;99.90
14016;DHT22;7083;48.854;9.158;2022-12-24T06:56:00;7.80;99.90
14016;DHT22;7083;48.854;9.158;2022-12-24T06:58:28;7.90;99.90
14016;DHT22;7083;48.854;9.158;2022-12-24T07:00:55;8.50;99.90
14016;DHT22;7083;48.854;9.158;2022-12-24T07:03:23;7.10;99.90
14016;DHT22;7083;48.854;9.158;2022-12-24T07:05:50;8.10;99.90
14016;DHT22;7083;48.854;9.158;2022-12-24T07:08:16;7.20;99.90
14016;DHT22;7083;48.854;9.158;2022-12-24T07:10:43;7.20;99.90
14016;DHT22;7083;48.854;9.158;2022-12-24T07:13:10;7.60;99.90
14016;DHT22;7083;48.854;9.158;2022-12-24T07:15:37;7.30;99.90
14016;DHT22;7083;48.854;9.158;2022-12-24T07:18:04;9.80;99.90
14016;DHT22;7083;48.854;9.158;2022-12-24T07:20:32;8.80;99.90
14016;DHT22;7083;48.854;9.158;2022-12-24T07:22:59;7.20;99.90
14016;DHT22;7083;48.854;9.158;2022-12-24T07:25:25;7.20;99.90
14016;DHT22;7083;48.854;9.158;2022-12-24T07:27:52;7.10;99.90
14016;DHT22;7083;48.854;9.158;2022-12-24T07:30:19;7.10;99.90
14016;DHT22;7083;48.854;9.158;2022-12-24T07:32:46;7.40;99.90
14016;DHT22;7083;48.854;9.158;2022-12-24T07:35:13;7.00;99.90
14016;DHT22;7083;48.854;9.158;2022-12-24T07:37:41;7.00;99.90
14016;DHT22;7083;48.854;9.158;2022-12-24T07:40:08;7.90;99.90
14016;DHT22;7083;48.854;9.158;2022-12-24T07:42:35;7.00;99.90
14016;DHT22;7083;48.854;9.158;2022-12-24T07:45:02;7.00;99.90
14016;DHT22;7083;48.854;9.158;2022-12-24T07:47:29;7.00;99.90
14016;DHT22;7083;48.854;9.158;2022-12-24T07:49:56;7.00;99.90
14016;DHT22;7083;48.854;9.158;2022-12-24T07:52:22;7.10;99.90
14016;DHT22;7083;48.854;9.158;2022-12-24T07:54:50;7.10;99.90
14016;DHT22;7083;48.854;9.158;2022-12-24T07:57:17;7.10;99.90
14016;DHT22;7083;48.854;9.158;2022-12-24T07:59:44;7.10;99.90
14016;DHT22;7083;48.854;9.158;2022-12-24T08:02:11;8.20;99.90
14016;DHT22;7083;48.854;9.158;2022-12-24T08:04:38;7.10;99.90
14016;DHT22;7083;48.854;9.158;2022-12-24T08:07:05;7.10;99.90
14016;DHT22;7083;48.854;9.158;2022-12-24T08:09:33;9.40;99.90
14016;DHT22;7083;48.854;9.158;2022-12-24T08:12:02;7.00;99.90
14016;DHT22;7083;48.854;9.158;2022-12-24T08:14:29;7.00;99.90
14016;DHT22;7083;48.854;9.158;2022-12-24T08:16:57;7.00;99.90
14016;DHT22;7083;48.854;9.158;2022-12-24T08:19:24;8.00;99.90
14016;DHT22;7083;48.854;9.158;2022-12-24T08:21:50;7.00;99.90
14016;DHT22;7083;48.854;9.158;2022-12-24T08:24:17;7.20;99.90
14016;DHT22;7083;48.854;9.158;2022-12-24T08:26:44;7.30;99.90
14016;DHT22;7083;48.854;9.158;2022-12-24T08:29:12;7.30;99.90
14016;DHT22;7083;48.854;9.158;2022-12-24T08:31:38;7.40;99.90
14016;DHT22;7083;48.854;9.158;2022-12-24T08:34:06;7.40;99.90
14016;DHT22;7083;48.854;9.158;2022-12-24T08:36:33;7.40;99.90
14016;DHT22;7083;48.854;9.158;2022-12-24T08:39:00;7.50;99.90
14016;DHT22;7083;48.854;9.158;2022-12-24T08:41:28;7.50;99.90
14016;DHT22;7083;48.854;9.158;2022-12-24T08:43:54;7.50;99.90
14016;DHT22;7083;48.854;9.158;2022-12-24T08:46:23;7.50;99.90
14016;DHT22;7083;48.854;9.158;2022-12-24T08:48:49;7.50;99.90
14016;DHT22;7083;48.854;9.158;2022-12-24T08:51:16;7.50;99.90
14016;DHT22;7083;48.854;9.158;2022-12-24T08:53:44;7.50;99.90
14016;DHT22;7083;48.854;9.158;2022-12-24T08:56:11;7.50;99.90
14016;DHT22;7083;48.854;9.158;2022-12-24T08:58:38;7.50;99.90
14016;DHT22;7083;48.854;9.158;2022-12-24T09:01:10;7.40;99.90
14016;DHT22;7083;48.854;9.158;2022-12-24T09:03:39;7.40;99.90
14016;DHT22;7083;48.854;9.158;2022-12-24T09:06:06;7.40;99.90
14016;DHT22;7083;48.854;9.158;2022-12-24T09:08:33;7.30;99.90
14016;DHT22;7083;48.854;9.158;2022-12-24T09:11:04;7.40;99.90
14016;DHT22;7083;48.854;9.158;2022-12-24T09:13:31;7.40;99.90
14016;DHT22;7083;48.854;9.158;2022-12-24T09:15:58;7.50;99.90
14016;DHT22;7083;48.854;9.158;2022-12-24T09:18:25;7.60;99.90
14016;DHT22;7083;48.854;9.158;2022-12-24T09:20:59;10.00;99.90
14016;DHT22;7083;48.854;9.158;2022-12-24T09:23:26;7.70;99.90
14016;DHT22;7083;48.854;9.158;2022-12-24T09:25:53;7.70;99.90
14016;DHT22;7083;48.854;9.158;2022-12-24T09:28:20;7.80;99.90
14016;DHT22;7083;48.854;9.158;2022-12-24T09:30:57;7.80;99.90
14016;DHT22;7083;48.854;9.158;2022-12-24T09:33:24;7.90;99.90
14016;DHT22;7083;48.854;9.158;2022-12-24T09:35:51;8.00;99.90
14016;DHT22;7083;48.854;9.158;2022-12-24T09:38:19;8.10;99.90
14016;DHT22;7083;48.854;9.158;2022-12-24T09:40:46;8.10;99.90
14016;DHT22;7083;48.854;9.158;2022-12-24T09:43:16;8.20;99.90
14016;DHT22;7083;48.854;9.158;2022-12-24T09:45:49;8.20;99.90
14016;DHT22;7083;48.854;9.158;2022-12-24T09:48:20;9.00;99.90
14016;DHT22;7083;48.854;9.158;2022-12-24T09:50:51;8.30;99.90
14016;DHT22;7083;48.854;9.158;2022-12-24T09:53:23;8.30;99.90
14016;DHT22;7083;48.854;9.158;2022-12-24T09:55:55;8.40;99.90
14016;DHT22;7083;48.854;9.158;2022-12-24T09:58:26;8.40;99.90
14016;DHT22;7083;48.854;9.158;2022-12-24T10:00:55;8.50;99.90
14016;DHT22;7083;48.854;9.158;2022-12-24T10:03:21;8.60;99.90
14016;DHT22;7083;48.854;9.158;2022-12-24T10:05:57;8.80;99.90
14016;DHT22;7083;48.854;9.158;2022-12-24T10:08:32;8.90;99.90
14016;DHT22;7083;48.854;9.158;2022-12-24T10:11:09;8.90;99.90
14016;DHT22;7083;48.854;9.158;2022-12-24T10:13:52;8.90;99.90
14016;DHT22;7083;48.854;9.158;2022-12-24T10:16:27;8.80;99.90
14016;DHT22;7083;48.854;9.158;2022-12-24T10:19:04;8.80;99.90
14016;DHT22;7083;48.854;9.158;2022-12-24T10:21:43;8.80;99.90
14016;DHT22;7083;48.854;9.158;2022-12-24T10:24:18;8.90;99.90
14016;DHT22;7083;48.854;9.158;2022-12-24T10:26:51;8.90;99.90
14016;DHT22;7083;48.854;9.158;2022-12-24T10:29:22;9.00;99.90
14016;DHT22;7083;48.854;9.158;2022-12-24T10:31:55;9.10;99.90
14016;DHT22;7083;48.854;9.158;2022-12-24T10:34:28;9.10;99.90
14016;DHT22;7083;48.854;9.158;2022-12-24T10:36:57;9.10;99.90
14016;DHT22;7083;48.854;9.158;2022-12-24T10:39:26;9.10;99.90
14016;DHT22;7083;48.854;9.158;2022-12-24T10:41:54;9.10;99.90
14016;DHT22;7083;48.854;9.158;2022-12-24T10:44:25;9.20;99.90
14016;DHT22;7083;48.854;9.158;2022-12-24T10:46:53;9.20;99.90
14016;DHT22;7083;48.854;9.158;2022-12-24T10:49:29;9.20;99.90
14016;DHT22;7083;48.854;9.158;2022-12-24T10:52:02;9.20;99.90
14016;DHT22;7083;48.854;9.158;2022-12-24T10:54:31;9.20;99.90
14016;DHT22;7083;48.854;9.158;2022-12-24T10:57:05;9.30;99.90
14016;DHT22;7083;48.854;9.158;2022-12-24T10:59:39;9.20;99.90
14016;DHT22;7083;48.854;9.158;2022-12-24T11:02:26;9.20;99.90
14016;DHT22;7083;48.854;9.158;2022-12-24T11:04:53;9.20;99.90
14016;DHT22;7083;48.854;9.158;2022-12-24T11:07:22;9.20;99.90
14016;DHT22;7083;48.854;9.158;2022-12-24T11:09:57;9.30;99.90
14016;DHT22;7083;48.854;9.158;2022-12-24T11:12:26;9.30;99.90
14016;DHT22;7083;48.854;9.158;2022-12-24T11:15:02;9.40;99.90
14016;DHT22;7083;48.854;9.158;2022-12-24T11:17:30;9.40;99.90
14016;DHT22;7083;48.854;9.158;2022-12-24T11:19:58;9.50;99.90
14016;DHT22;7083;48.854;9.158;2022-12-24T11:22:29;9.50;99.90
14016;DHT22;7083;48.854;9.158;2022-12-24T11:25:01;9.50;99.90
14016;DHT22;7083;48.854;9.158;2022-12-24T11:27:38;9.50;99.90
14016;DHT22;7083;48.854;9.158;2022-12-24T11:30:21;9.50;99.90
14016;DHT22;7083;48.854;9.158;2022-12-24T11:32:49;9.40;99.90
14016;DHT22;7083;48.854;9.158;2022-12-24T11:35:19;9.30;99.90
14016;DHT22;7083;48.854;9.158;2022-12-24T11:37:47;9.30;99.90
14016;DHT22;7083;48.854;9.158;2022-12-24T11:40:23;9.20;99.90
14016;DHT22;7083;48.854;9.158;2022-12-24T11:42:58;9.20;99.90
14016;DHT22;7083;48.854;9.158;2022-12-24T11:45:27;9.20;99.90
14016;DHT22;7083;48.854;9.158;2022-12-24T11:47:55;9.20;99.90
14016;DHT22;7083;48.854;9.158;2022-12-24T11:50:26;9.20;99.90
14016;DHT22;7083;48.854;9.158;2022-12-24T11:53:01;9.20;99.90
14016;DHT22;7083;48.854;9.158;2022-12-24T11:55:40;9.20;99.90
14016;DHT22;7083;48.854;9.158;2022-12-24T11:58:16;9.20;99.90
14016;DHT22;7083;48.854;9.158;2022-12-24T12:00:46;9.30;99.90
14016;DHT22;7083;48.854;9.158;2022-12-24T12:03:28;9.30;99.90
14016;DHT22;7083;48.854;9.158;2022-12-24T12:05:58;9.40;99.90
14016;DHT22;7083;48.854;9.158;2022-12-24T12:08:27;9.40;99.90
14016;DHT22;7083;48.854;9.158;2022-12-24T12:10:57;9.40;99.90
14016;DHT22;7083;48.854;9.158;2022-12-24T12:13:28;9.50;99.90
14016;DHT22;7083;48.854;9.158;2022-12-24T12:16:10;9.50;99.90
14016;DHT22;7083;48.854;9.158;2022-12-24T12:18:41;9.50;99.90
14016;DHT22;7083;48.854;9.158;2022-12-24T12:21:15;9.50;99.90
14016;DHT22;7083;48.854;9.158;2022-12-24T12:23:46;9.60;99.90
14016;DHT22;7083;48.854;9.158;2022-12-24T12:26:18;9.60;99.90
14016;DHT22;7083;48.854;9.158;2022-12-24T12:28:52;9.70;99.90
14016;DHT22;7083;48.854;9.158;2022-12-24T12:31:23;9.70;99.90
14016;DHT22;7083;48.854;9.158;2022-12-24T12:33:58;9.70;99.90
14016;DHT22;7083;48.854;9.158;2022-12-24T12:36:31;9.70;99.90
14016;DHT22;7083;48.854;9.158;2022-12-24T12:38:59;9.80;99.90
14016;DHT22;7083;48.854;9.158;2022-12-24T12:41:36;9.80;99.90
14016;DHT22;7083;48.854;9.158;2022-12-24T12:44:35;9.80;99.90
14016;DHT22;7083;48.854;9.158;2022-12-24T12:47:18;9.70;99.90
14016;DHT22;7083;48.854;9.158;2022-12-24T12:49:53;9.80;99.90
14016;DHT22;7083;48.854;9.158;2022-12-24T12:52:40;9.90;99.90
14016;DHT22;7083;48.854;9.158;2022-12-24T12:55:21;9.80;99.90
14016;DHT22;7083;48.854;9.158;2022-12-24T12:57:52;9.80;99.90
14016;DHT22;7083;48.854;9.158;2022-12-24T13:00:20;9.80;99.90
14016;DHT22;7083;48.854;9.158;2022-12-24T13:06:06;9.90;99.90
14016;DHT22;7083;48.854;9.158;2022-12-24T13:09:00;10.00;99.90
14016;DHT22;7083;48.854;9.158;2022-12-24T13:11:46;10.10;99.90
14016;DHT22;7083;48.854;9.158;2022-12-24T13:14:33;10.20;99.90
14016;DHT22;7083;48.854;9.158;2022-12-24T13:20:20;10.20;99.90
14016;DHT22;7083;48.854;9.158;2022-12-24T13:22:56;10.30;99.90
14016;DHT22;7083;48.854;9.158;2022-12-24T13:25:28;10.30;99.90
14016;DHT22;7083;48.854;9.158;2022-12-24T13:27:55;10.30;99.90
14016;DHT22;7083;48.854;9.158;2022-12-24T13:30:35;10.30;99.90
14016;DHT22;7083;48.854;9.158;2022-12-24T13:33:03;10.30;99.90
14016;DHT22;7083;48.854;9.158;2022-12-24T13:35:35;10.30;99.90
14016;DHT22;7083;48.854;9.158;2022-12-24T13:44:25;10.20;99.90
14016;DHT22;7083;48.854;9.158;2022-12-24T13:47:17;10.10;99.90
14016;DHT22;7083;48.854;9.158;2022-12-24T13:49:48;10.10;99.90
14016;DHT22;7083;48.854;9.158;2022-12-24T13:52:28;10.00;99.90
14016;DHT22;7083;48.854;9.158;2022-12-24T13:55:03;9.90;99.90
14016;DHT22;7083;48.854;9.158;2022-12-24T13:57:34;9.90;99.90
14016;DHT22;7083;48.854;9.158;2022-12-24T14:00:05;9.80;99.90
14016;DHT22;7083;48.854;9.158;2022-12-24T14:02:37;9.80;99.90
14016;DHT22;7083;48.854;9.158;2022-12-24T14:05:14;9.80;99.90
14016;DHT22;7083;48.854;9.158;2022-12-24T14:07:44;9.80;99.90
14016;DHT22;7083;48.854;9.158;2022-12-24T14:10:19;9.80;99.90
14016;DHT22;7083;48.854;9.158;2022-12-24T14:12:48;9.80;99.90
14016;DHT22;7083;48.854;9.158;2022-12-24T14:18:26;9.90;99.90
14016;DHT22;7083;48.854;9.158;2022-12-24T14:20:55;9.80;99.90
14016;DHT22;7083;48.854;9.158;2022-12-24T14:23:30;9.80;99.90
14016;DHT22;7083;48.854;9.158;2022-12-24T14:26:00;9.70;99.90
14016;DHT22;7083;48.854;9.158;2022-12-24T14:28:33;9.70;99.90
14016;DHT22;7083;48.854;9.158;2022-12-24T14:31:02;9.70;99.90
14016;DHT22;7083;48.854;9.158;2022-12-24T14:33:32;9.70;99.90
14016;DHT22;7083;48.854;9.158;2022-12-24T14:35:59;9.70;99.90
14016;DHT22;7083;48.854;9.158;2022-12-24T14:38:27;9.60;99.90
14016;DHT22;7083;48.854;9.158;2022-12-24T14:40:59;9.60;99.90
14016;DHT22;7083;48.854;9.158;2022-12-24T14:43:43;9.60;99.90
14016;DHT22;7083;48.854;9.158;2022-12-24T14:46:16;9.60;99.90
14016;DHT22;7083;48.854;9.158;2022-12-24T14:48:51;9.60;99.90
14016;DHT22;7083;48.854;9.158;2022-12-24T14:51:31;9.60;99.90
14016;DHT22;7083;48.854;9.158;2022-12-24T14:57:21;9.40;99.90
14016;DHT22;7083;48.854;9.158;2022-12-24T14:59:53;9.20;99.90
14016;DHT22;7083;48.854;9.158;2022-12-24T15:02:39;9.10;99.90
14016;DHT22;7083;48.854;9.158;2022-12-24T15:05:14;9.00;99.90
14016;DHT22;7083;48.854;9.158;2022-12-24T15:07:45;8.90;99.90
14016;DHT22;7083;48.854;9.158;2022-12-24T15:10:26;8.80;99.90
14016;DHT22;7083;48.854;9.158;2022-12-24T15:12:55;8.70;99.90
14016;DHT22;7083;48.854;9.158;2022-12-24T15:15:23;8.60;99.90
14016;DHT22;7083;48.854;9.158;2022-12-24T15:17:50;8.60;99.90
14016;DHT22;7083;48.854;9.158;2022-12-24T15:20:21;8.50;99.90
14016;DHT22;7083;48.854;9.158;2022-12-24T15:22:52;8.40;99.90
14016;DHT22;7083;48.854;9.158;2022-12-24T15:25:24;8.40;99.90
14016;DHT22;7083;48.854;9.158;2022-12-24T15:27:51;8.30;99.90
14016;DHT22;7083;48.854;9.158;2022-12-24T15:30:20;8.30;99.90
14016;DHT22;7083;48.854;9.158;2022-12-24T15:32:52;8.20;99.90
14016;DHT22;7083;48.854;9.158;2022-12-24T15:35:55;8.10;99.90
14016;DHT22;7083;48.854;9.158;2022-12-24T15:38:37;8.10;99.90
14016;DHT22;7083;48.854;9.158;2022-12-24T15:41:14;8.10;99.90
14016;DHT22;7083;48.854;9.158;2022-12-24T15:43:43;8.00;99.90
14016;DHT22;7083;48.854;9.158;2022-12-24T15:46:17;8.00;99.90
14016;DHT22;7083;48.854;9.158;2022-12-24T15:48:45;7.90;99.90
14016;DHT22;7083;48.854;9.158;2022-12-24T15:51:20;7.90;99.90
14016;DHT22;7083;48.854;9.158;2022-12-24T15:53:47;7.80;99.90
14016;DHT22;7083;48.854;9.158;2022-12-24T15:56:29;7.80;99.90
14016;DHT22;7083;48.854;9.158;2022-12-24T15:59:19;7.80;99.90
14016;DHT22;7083;48.854;9.158;2022-12-24T16:01:48;7.70;99.90
14016;DHT22;7083;48.854;9.158;2022-12-24T16:04:18;7.70;99.90
14016;DHT22;7083;48.854;9.158;2022-12-24T16:06:55;7.70;99.90
14016;DHT22;7083;48.854;9.158;2022-12-24T16:09:30;7.70;99.90
14016;DHT22;7083;48.854;9.158;2022-12-24T16:11:57;7.60;99.90
14016;DHT22;7083;48.854;9.158;2022-12-24T16:14:24;7.60;99.90
14016;DHT22;7083;48.854;9.158;2022-12-24T16:16:51;7.60;99.90
14016;DHT22;7083;48.854;9.158;2022-12-24T16:19:22;7.60;99.90
14016;DHT22;7083;48.854;9.158;2022-12-24T16:21:51;7.60;99.90
14016;DHT22;7083;48.854;9.158;2022-12-24T16:24:22;7.60;99.90
14016;DHT22;7083;48.854;9.158;2022-12-24T16:26:49;7.60;99.90
14016;DHT22;7083;48.854;9.158;2022-12-24T16:29:18;7.50;99.90
14016;DHT22;7083;48.854;9.158;2022-12-24T16:31:47;7.50;99.90
14016;DHT22;7083;48.854;9.158;2022-12-24T16:34:15;7.40;99.90
14016;DHT22;7083;48.854;9.158;2022-12-24T16:36:44;7.40;99.90
14016;DHT22;7083;48.854;9.158;2022-12-24T16:39:12;7.40;99.90
14016;DHT22;7083;48.854;9.158;2022-12-24T16:41:50;7.40;99.90
14016;DHT22;7083;48.854;9.158;2022-12-24T16:44:35;7.40;99.90
14016;DHT22;7083;48.854;9.158;2022-12-24T16:47:03;7.40;99.90
14016;DHT22;7083;48.854;9.158;2022-12-24T16:49:31;7.40;99.90
14016;DHT22;7083;48.854;9.158;2022-12-24T16:51:57;7.40;99.90
14016;DHT22;7083;48.854;9.158;2022-12-24T16:54:24;7.40;99.90
14016;DHT22;7083;48.854;9.158;2022-12-24T16:56:52;7.50;99.90
14016;DHT22;7083;48.854;9.158;2022-12-24T16:59:20;7.50;99.90
14016;DHT22;7083;48.854;9.158;2022-12-24T17:01:48;7.50;99.90
14016;DHT22;7083;48.854;9.158;2022-12-24T17:04:16;7.60;99.90
14016;DHT22;7083;48.854;9.158;2022-12-24T17:06:43;7.60;99.90
14016;DHT22;7083;48.854;9.158;2022-12-24T17:09:11;7.60;99.90
14016;DHT22;7083;48.854;9.158;2022-12-24T17:11:38;7.60;99.90
14016;DHT22;7083;48.854;9.158;2022-12-24T17:14:06;7.60;99.90
14016;DHT22;7083;48.854;9.158;2022-12-24T17:16:32;7.60;99.90
14016;DHT22;7083;48.854;9.158;2022-12-24T17:19:01;7.60;99.90
14016;DHT22;7083;48.854;9.158;2022-12-24T17:21:28;7.60;99.90
14016;DHT22;7083;48.854;9.158;2022-12-24T17:23:54;7.60;99.90
14016;DHT22;7083;48.854;9.158;2022-12-24T17:26:21;7.60;99.90
14016;DHT22;7083;48.854;9.158;2022-12-24T17:28:51;7.60;99.90
14016;DHT22;7083;48.854;9.158;2022-12-24T17:31:20;7.60;99.90
14016;DHT22;7083;48.854;9.158;2022-12-24T17:33:47;7.60;99.90
14016;DHT22;7083;48.854;9.158;2022-12-24T17:36:15;7.60;99.90
14016;DHT22;7083;48.854;9.158;2022-12-24T17:38:41;7.60;99.90
14016;DHT22;7083;48.854;9.158;2022-12-24T17:41:10;7.70;99.90
14016;DHT22;7083;48.854;9.158;2022-12-24T17:43:37;7.70;99.90
14016;DHT22;7083;48.854;9.158;2022-12-24T17:46:04;7.70;99.90
14016;DHT22;7083;48.854;9.158;2022-12-24T17:48:33;7.80;99.90
14016;DHT22;7083;48.854;9.158;2022-12-24T17:51:03;7.80;99.90
14016;DHT22;7083;48.854;9.158;2022-12-24T17:53:31;7.80;99.90
14016;DHT22;7083;48.854;9.158;2022-12-24T17:55:58;7.80;99.90
14016;DHT22;7083;48.854;9.158;2022-12-24T17:58:24;7.80;99.90
14016;DHT22;7083;48.854;9.158;2022-12-24T18:00:51;7.80;99.90
14016;DHT22;7083;48.854;9.158;2022-12-24T18:03:20;7.80;99.90
14016;DHT22;7083;48.854;9.158;2022-12-24T18:05:48;7.80;99.90